This is the latest recevied weather packets stored in our database for station/object N0TKN. If no packets are shown the sender has not sent any weather packets the latest 10 day(s).
| Time | Temp. | Humidity | Pressure | Rain* | Wind** | Luminosity | Snow |
|---|---|---|---|---|---|---|---|
| 1777323318 | 25° C | 86% | 1000.1 hPa | 0 mm | - | 37 W/m² | - |
| 1777322718 | 25° C | 89% | 1000.2 hPa | 0 mm | - | 50 W/m² | - |
| 1777322118 | 25° C | 89% | 1000.2 hPa | 0 mm | - | 61 W/m² | - |
| 1777321518 | 25° C | 87% | 1000.1 hPa | 0 mm | - | 125 W/m² | - |
| 1777320916 | 25.56° C | 85% | 1000 hPa | 0 mm | - | 255 W/m² | - |
| 1777320316 | 25° C | 86% | 1000.4 hPa | 0 mm | - | 299 W/m² | - |
| 1777319716 | 25° C | 86% | 1000.2 hPa | 0 mm | - | 567 W/m² | - |
| 1777319116 | 24.44° C | 86% | 1000.3 hPa | 0 mm | - | 646 W/m² | - |
| 1777318516 | 23.89° C | 89% | 1000.5 hPa | 0 mm | - | 766 W/m² | - |
| 1777317917 | 23.33° C | 89% | 1000.7 hPa | 0 mm | - | 827 W/m² | - |
| 1777317317 | 22.22° C | 91% | 1000.6 hPa | 0 mm | - | 853 W/m² | - |
| 1777316717 | 22.22° C | 91% | 1000.6 hPa | 0 mm | - | 892 W/m² | - |
| 1777316116 | 21.11° C | 93% | 1000.6 hPa | 0 mm | - | 871 W/m² | - |
| 1777315518 | 21.11° C | 94% | 1000.6 hPa | 0 mm | - | 875 W/m² | - |
| 1777314917 | 20.56° C | 95% | 1001.2 hPa | 0 mm | - | 708 W/m² | - |
| 1777314317 | 20.56° C | 98% | 1001 hPa | 0 mm | - | 848 W/m² | - |
| 1777313718 | 20° C | 97% | 1002.5 hPa | 0 mm | - | 127 W/m² | - |
| 1777313118 | 20.56° C | 96% | 1002 hPa | 0 mm | - | 370 W/m² | - |
| 1777312518 | 20° C | 99% | 1000.9 hPa | 0.76 mm | - | 920 W/m² | - |
| 1777311918 | 18.89° C | 99% | 1001 hPa | 5.84 mm | - | 771 W/m² | - |
| 1777311318 | 18.33° C | 99% | 1001.1 hPa | 10.41 mm | - | 755 W/m² | - |
| 1777310719 | 17.78° C | 99% | 1001.2 hPa | 19.56 mm | - | 648 W/m² | - |
| 1777310121 | 17.22° C | 99% | 1001.8 hPa | 19.56 mm | - | 529 W/m² | - |
| 1777309519 | 17.22° C | 99% | 1002.8 hPa | 23.88 mm | - | 102 W/m² | - |
| 1777308919 | 16.67° C | 99% | 1003.2 hPa | 26.16 mm | - | 41 W/m² | - |
* Rain latest hour (hover to see other rain measurements)
** Current wind speed in m/s (hover to see current wind gust speed)